createdAt,value
2017-04-09T00:00:11.054Z,21.29
2017-04-09T00:01:21.292Z,21.32
2017-04-09T00:02:31.534Z,21.32
2017-04-09T00:03:41.507Z,21.29
2017-04-09T00:04:51.751Z,21.22
2017-04-09T00:06:01.989Z,21.27
2017-04-09T00:07:12.229Z,21.25
2017-04-09T00:08:22.165Z,21.24
2017-04-09T00:09:32.414Z,21.19
2017-04-09T00:10:42.650Z,21.27
2017-04-09T00:11:52.888Z,21.24
2017-04-09T00:13:02.814Z,21.25
2017-04-09T00:14:12.754Z,21.25
2017-04-09T00:15:23.025Z,21.27
2017-04-09T00:16:33.263Z,21.27
2017-04-09T00:17:43.499Z,21.24
2017-04-09T00:18:53.120Z,21.22
2017-04-09T00:20:03.357Z,21.25
2017-04-09T00:21:13.287Z,21.27
2017-04-09T00:22:23.215Z,21.25
2017-04-09T00:23:33.141Z,21.31
2017-04-09T00:24:43.064Z,21.27
2017-04-09T00:25:53.302Z,21.31
2017-04-09T00:27:03.540Z,21.27
2017-04-09T00:28:13.467Z,21.29
2017-04-09T00:29:23.393Z,21.24
2017-04-09T00:30:33.632Z,21.27
2017-04-09T00:31:43.878Z,21.25
2017-04-09T00:32:54.146Z,21.27
2017-04-09T00:34:04.082Z,21.25
2017-04-09T00:35:14.326Z,21.24
2017-04-09T00:36:24.250Z,21.31
2017-04-09T00:37:34.179Z,21.24
2017-04-09T00:38:44.432Z,21.27
2017-04-09T00:39:54.363Z,21.27
2017-04-09T00:41:04.603Z,21.21
2017-04-09T00:42:14.839Z,21.24
2017-04-09T00:43:25.078Z,21.28
2017-04-09T00:44:35.315Z,21.28
2017-04-09T00:45:45.555Z,21.28
2017-04-09T00:46:55.486Z,21.31
2017-04-09T00:48:05.725Z,21.28
2017-04-09T00:49:15.649Z,21.27
2017-04-09T00:50:25.884Z,21.28
2017-04-09T00:51:35.810Z,21.24
2017-04-09T00:52:45.743Z,21.24
2017-04-09T00:53:55.372Z,21.22
2017-04-09T00:55:04.999Z,21.27
2017-04-09T00:56:15.243Z,21.24
2017-04-09T00:57:25.480Z,21.25
2017-04-09T00:58:35.408Z,21.25
2017-04-09T00:59:45.340Z,21.24
2017-04-09T01:00:55.580Z,21.22
2017-04-09T01:02:05.504Z,21.22
2017-04-09T01:03:15.752Z,21.25
2017-04-09T01:04:25.694Z,21.25
2017-04-09T01:05:35.626Z,21.22
2017-04-09T01:06:45.863Z,21.27
2017-04-09T01:07:56.108Z,21.28
2017-04-09T01:09:06.361Z,21.27
2017-04-09T01:10:16.292Z,21.31
2017-04-09T01:11:26.533Z,21.25
2017-04-09T01:12:36.489Z,21.19
2017-04-09T01:13:46.763Z,21.24
2017-04-09T01:14:56.385Z,21.25
2017-04-09T01:16:06.319Z,21.22
2017-04-09T01:17:16.281Z,21.34
2017-04-09T01:18:26.526Z,21.24
2017-04-09T01:19:36.453Z,21.24
2017-04-09T01:20:46.697Z,21.22
2017-04-09T01:21:56.619Z,21.27
2017-04-09T01:23:06.857Z,21.31
2017-04-09T01:24:17.118Z,21.28
2017-04-09T01:25:27.360Z,21.24
2017-04-09T01:26:37.600Z,21.34
2017-04-09T01:27:47.527Z,21.25
2017-04-09T01:28:57.768Z,21.24
2017-04-09T01:30:08.005Z,21.34
2017-04-09T01:31:17.622Z,21.28
2017-04-09T01:32:27.582Z,21.25
2017-04-09T01:33:37.818Z,21.29
2017-04-09T01:34:48.066Z,21.24
2017-04-09T01:35:58.320Z,21.22
2017-04-09T01:37:08.573Z,21.21
2017-04-09T01:38:18.503Z,21.28
2017-04-09T01:39:28.431Z,21.22
2017-04-09T01:40:38.665Z,21.24
2017-04-09T01:41:48.906Z,21.24
2017-04-09T01:42:58.835Z,21.22
2017-04-09T01:44:08.786Z,21.35
2017-04-09T01:45:18.719Z,21.24
2017-04-09T01:46:28.646Z,21.38
2017-04-09T01:47:38.577Z,21.35
2017-04-09T01:48:48.824Z,21.35
2017-04-09T01:49:59.061Z,21.32
2017-04-09T01:51:09.300Z,21.34
2017-04-09T01:52:19.226Z,21.24
2017-04-09T01:53:29.502Z,21.29
2017-04-09T01:54:39.120Z,21.32
2017-04-09T01:55:49.360Z,21.24
2017-04-09T01:56:59.597Z,21.32
2017-04-09T01:58:09.835Z,21.27
2017-04-09T01:59:20.077Z,21.32
2017-04-09T02:00:30.005Z,21.27
2017-04-09T02:01:40.241Z,21.22
2017-04-09T02:02:50.485Z,21.28
2017-04-09T02:04:00.416Z,21.32
2017-04-09T02:05:10.352Z,21.32
2017-04-09T02:06:20.288Z,21.31
2017-04-09T02:07:30.543Z,21.25
2017-04-09T02:08:40.782Z,21.24
2017-04-09T02:09:51.022Z,21.27
2017-04-09T02:11:00.634Z,21.31
2017-04-09T02:12:10.879Z,21.32
2017-04-09T02:13:21.118Z,21.21
2017-04-09T02:14:31.365Z,21.24
2017-04-09T02:15:41.607Z,21.32
2017-04-09T02:16:51.535Z,21.29
2017-04-09T02:18:01.774Z,21.28
2017-04-09T02:19:12.018Z,21.21
2017-04-09T02:20:22.261Z,21.32
2017-04-09T02:21:32.189Z,21.27
2017-04-09T02:22:42.432Z,21.31
2017-04-09T02:23:52.678Z,21.19
2017-04-09T02:25:02.609Z,21.25
2017-04-09T02:26:12.536Z,21.22
2017-04-09T02:27:22.787Z,21.25
2017-04-09T02:28:32.708Z,21.19
2017-04-09T02:29:42.638Z,21.25
2017-04-09T02:30:52.890Z,21.27
2017-04-09T02:32:02.816Z,21.24
2017-04-09T02:33:12.752Z,21.22
2017-04-09T02:34:22.999Z,21.25
2017-04-09T02:35:33.251Z,21.29
2017-04-09T02:36:42.873Z,21.25
2017-04-09T02:37:52.800Z,21.29
2017-04-09T02:39:02.728Z,21.37
2017-04-09T02:40:12.656Z,21.4
2017-04-09T02:41:22.896Z,21.37
2017-04-09T02:42:32.827Z,21.42
2017-04-09T02:43:42.758Z,21.32
2017-04-09T02:44:52.998Z,21.35
2017-04-09T02:46:02.933Z,21.28
2017-04-09T02:47:12.861Z,21.37
2017-04-09T02:48:23.108Z,21.35
2017-04-09T02:49:33.039Z,21.25
2017-04-09T02:50:42.970Z,21.35
2017-04-09T02:51:52.901Z,21.34
2017-04-09T02:53:02.827Z,21.34
2017-04-09T02:54:12.751Z,21.32
2017-04-09T02:55:22.682Z,21.35
2017-04-09T02:56:32.613Z,21.32
2017-04-09T02:57:42.856Z,21.37
2017-04-09T02:58:52.785Z,21.31
2017-04-09T03:00:03.020Z,21.37
2017-04-09T03:01:12.953Z,21.34
2017-04-09T03:02:23.205Z,21.28
2017-04-09T03:03:33.454Z,21.25
2017-04-09T03:04:43.388Z,21.37
2017-04-09T03:05:53.316Z,21.31
2017-04-09T03:07:03.244Z,21.32
2017-04-09T03:08:13.489Z,21.32
2017-04-09T03:09:23.739Z,21.32
2017-04-09T03:10:33.672Z,21.29
2017-04-09T03:11:43.600Z,21.34
2017-04-09T03:12:53.840Z,21.32
2017-04-09T03:14:04.091Z,21.25
2017-04-09T03:15:14.020Z,21.25
2017-04-09T03:16:23.956Z,21.22
2017-04-09T03:17:33.570Z,21.37
2017-04-09T03:18:43.864Z,21.34
2017-04-09T03:19:53.801Z,21.25
2017-04-09T03:21:04.057Z,21.32
2017-04-09T03:22:14.300Z,21.32
2017-04-09T03:23:24.549Z,21.34
2017-04-09T03:24:34.784Z,21.24
2017-04-09T03:25:45.025Z,21.34
2017-04-09T03:26:54.948Z,21.37
2017-04-09T03:28:05.196Z,21.25
2017-04-09T03:29:14.810Z,21.32
2017-04-09T03:30:25.051Z,21.25
2017-04-09T03:31:35.293Z,21.35
2017-04-09T03:32:45.222Z,21.32
2017-04-09T03:33:55.470Z,21.31
2017-04-09T03:35:05.396Z,21.38
2017-04-09T03:36:15.636Z,21.35
2017-04-09T03:37:25.575Z,21.38
2017-04-09T03:38:35.828Z,21.32
2017-04-09T03:39:46.070Z,21.25
2017-04-09T03:40:56.309Z,21.34
2017-04-09T03:42:06.546Z,21.28
2017-04-09T03:43:16.155Z,21.37
2017-04-09T03:44:26.398Z,21.32
2017-04-09T03:45:36.323Z,21.37
2017-04-09T03:46:46.257Z,21.34
2017-04-09T03:47:56.521Z,21.34
2017-04-09T03:49:06.770Z,21.32
2017-04-09T03:50:16.691Z,21.24
2017-04-09T03:51:26.620Z,21.31
2017-04-09T03:52:36.865Z,21.32
2017-04-09T03:53:47.099Z,21.32
2017-04-09T03:54:57.342Z,21.32
2017-04-09T03:56:07.579Z,21.32
2017-04-09T03:57:17.820Z,21.32
2017-04-09T03:58:27.745Z,21.32
2017-04-09T03:59:37.671Z,21.37
2017-04-09T04:00:47.599Z,21.28
2017-04-09T04:01:57.837Z,21.35
2017-04-09T04:03:08.078Z,21.28
2017-04-09T04:04:18.048Z,21.31
2017-04-09T04:05:28.287Z,21.32
2017-04-09T04:06:38.526Z,21.37
2017-04-09T04:07:48.775Z,21.28
2017-04-09T04:08:58.701Z,21.35
2017-04-09T04:10:08.944Z,21.32
2017-04-09T04:11:18.558Z,21.37
2017-04-09T04:12:28.799Z,21.28
2017-04-09T04:13:38.418Z,21.35
2017-04-09T04:14:48.651Z,21.37
2017-04-09T04:15:58.894Z,21.32
2017-04-09T04:17:08.824Z,21.32
2017-04-09T04:18:19.066Z,21.32
2017-04-09T04:19:29.311Z,21.4
2017-04-09T04:20:39.546Z,21.35
2017-04-09T04:21:49.162Z,21.37
2017-04-09T04:22:59.088Z,21.27
2017-04-09T04:24:09.343Z,21.34
2017-04-09T04:25:20.268Z,21.35
2017-04-09T04:26:30.509Z,21.28
2017-04-09T04:27:40.432Z,21.21
2017-04-09T04:28:50.672Z,21.32
2017-04-09T04:30:00.917Z,21.34
2017-04-09T04:31:11.157Z,21.35
2017-04-09T04:32:21.400Z,21.31
2017-04-09T04:33:31.324Z,21.29
2017-04-09T04:34:41.254Z,21.34
2017-04-09T04:35:51.186Z,21.28
2017-04-09T04:37:01.110Z,21.31
2017-04-09T04:38:11.036Z,21.34
2017-04-09T04:39:20.647Z,21.38
2017-04-09T04:40:30.897Z,21.34
2017-04-09T04:41:40.823Z,21.37
2017-04-09T04:42:51.063Z,21.35
2017-04-09T04:44:01.314Z,21.31
2017-04-09T04:45:11.241Z,21.34
2017-04-09T04:46:21.488Z,21.34
2017-04-09T04:47:31.724Z,21.35
2017-04-09T04:48:41.967Z,21.42
2017-04-09T04:49:51.585Z,21.34
2017-04-09T04:51:01.518Z,21.32
2017-04-09T04:52:11.449Z,21.28
2017-04-09T04:53:21.381Z,21.32
2017-04-09T04:54:31.309Z,21.38
2017-04-09T04:55:41.550Z,21.38
2017-04-09T04:56:51.487Z,21.38
2017-04-09T04:58:01.738Z,21.35
2017-04-09T04:59:11.976Z,21.35
2017-04-09T05:00:21.906Z,21.29
2017-04-09T05:01:31.526Z,21.28
2017-04-09T05:02:41.774Z,21.32
2017-04-09T05:03:52.010Z,21.35
2017-04-09T05:05:02.251Z,21.32
2017-04-09T05:06:12.492Z,21.34
2017-04-09T05:07:22.107Z,21.32
2017-04-09T05:08:32.354Z,21.29
2017-04-09T05:09:42.605Z,21.32
2017-04-09T05:10:52.533Z,21.37
2017-04-09T05:12:02.471Z,21.4
2017-04-09T05:13:12.715Z,21.32
2017-04-09T05:14:22.652Z,21.25
2017-04-09T05:15:32.894Z,21.34
2017-04-09T05:16:42.822Z,21.34
2017-04-09T05:17:53.069Z,21.38
2017-04-09T05:19:03.517Z,21.35
2017-04-09T05:20:13.449Z,21.38
2017-04-09T05:21:23.690Z,21.29
2017-04-09T05:22:33.307Z,21.34
2017-04-09T05:23:43.227Z,21.4
2017-04-09T05:24:53.161Z,21.32
2017-04-09T05:26:03.403Z,21.29
2017-04-09T05:27:13.687Z,21.27
2017-04-09T05:28:23.298Z,21.4
2017-04-09T05:29:33.221Z,21.4
2017-04-09T05:30:43.151Z,21.42
2017-04-09T05:31:53.393Z,21.42
2017-04-09T05:33:03.631Z,21.29
2017-04-09T05:34:13.874Z,21.37
2017-04-09T05:35:23.482Z,21.38
2017-04-09T05:36:33.423Z,21.4
2017-04-09T05:37:43.350Z,21.34
2017-04-09T05:38:53.592Z,21.42
2017-04-09T05:40:03.829Z,21.29
2017-04-09T05:41:14.071Z,21.32
2017-04-09T05:42:23.994Z,21.43
2017-04-09T05:43:34.232Z,21.4
2017-04-09T05:44:44.476Z,21.4
2017-04-09T05:45:54.718Z,21.32
2017-04-09T05:47:04.955Z,21.25
2017-04-09T05:48:14.879Z,21.29
2017-04-09T05:49:24.848Z,21.35
2017-04-09T05:50:34.775Z,21.31
2017-04-09T05:51:45.018Z,21.31
2017-04-09T05:52:54.635Z,21.42
2017-04-09T05:54:04.563Z,21.38
2017-04-09T05:55:14.802Z,21.42
2017-04-09T05:56:25.042Z,21.4
2017-04-09T05:57:34.969Z,21.38
2017-04-09T05:58:44.899Z,21.42
2017-04-09T05:59:55.141Z,21.44
2017-04-09T06:01:05.076Z,21.4
2017-04-09T06:02:15.009Z,21.43
2017-04-09T06:03:25.255Z,21.4
2017-04-09T06:04:35.504Z,21.35
2017-04-09T06:05:45.431Z,21.42
2017-04-09T06:06:55.672Z,21.42
2017-04-09T06:08:05.916Z,21.42
2017-04-09T06:09:16.164Z,21.32
2017-04-09T06:10:26.131Z,21.46
2017-04-09T06:11:36.370Z,21.38
2017-04-09T06:12:46.304Z,21.35
2017-04-09T06:13:56.545Z,21.4
2017-04-09T06:15:06.789Z,21.44
2017-04-09T06:16:17.040Z,21.54
2017-04-09T06:17:27.301Z,21.54
2017-04-09T06:18:37.228Z,21.56
2017-04-09T06:19:47.156Z,21.54
2017-04-09T06:20:57.085Z,21.68
2017-04-09T06:22:07.321Z,21.61
2017-04-09T06:23:17.254Z,21.54
2017-04-09T06:24:27.494Z,21.52
2017-04-09T06:25:37.741Z,21.61
2017-04-09T06:26:47.666Z,21.53
2017-04-09T06:27:57.914Z,21.56
2017-04-09T06:29:07.852Z,21.47
2017-04-09T06:30:17.778Z,21.53
2017-04-09T06:31:27.084Z,21.56
2017-04-09T06:32:37.337Z,21.4
2017-04-09T06:33:47.268Z,21.52
2017-04-09T06:34:57.508Z,21.5
2017-04-09T06:36:07.134Z,21.53
2017-04-09T06:37:17.066Z,21.58
2017-04-09T06:38:26.988Z,21.42
2017-04-09T06:39:37.225Z,21.53
2017-04-09T06:40:47.156Z,21.56
2017-04-09T06:41:57.085Z,21.49
2017-04-09T06:43:07.346Z,21.47
2017-04-09T06:44:17.599Z,21.52
2017-04-09T06:45:27.837Z,21.47
2017-04-09T06:46:38.073Z,21.56
2017-04-09T06:47:47.998Z,21.52
2017-04-09T06:48:58.255Z,21.52
2017-04-09T06:50:08.504Z,21.49
2017-04-09T06:51:18.749Z,21.53
2017-04-09T06:52:28.988Z,21.53
2017-04-09T06:53:38.931Z,21.54
2017-04-09T06:54:49.193Z,21.52
2017-04-09T06:55:59.435Z,21.58
2017-04-09T06:57:09.369Z,21.58
2017-04-09T06:58:19.297Z,21.67
2017-04-09T06:59:29.542Z,21.65
2017-04-09T07:00:39.777Z,21.71
2017-04-09T07:01:49.711Z,21.67
2017-04-09T07:02:59.948Z,21.65
2017-04-09T07:04:10.110Z,21.68
2017-04-09T07:05:20.038Z,21.65
2017-04-09T07:06:29.964Z,21.59
2017-04-09T07:07:39.907Z,21.61
2017-04-09T07:08:50.147Z,21.65
2017-04-09T07:10:00.386Z,21.65
2017-04-09T07:11:10.312Z,21.64
2017-04-09T07:12:20.246Z,21.68
2017-04-09T07:13:30.175Z,21.62
2017-04-09T07:14:40.113Z,21.68
2017-04-09T07:15:50.052Z,21.67
2017-04-09T07:17:00.297Z,21.65
2017-04-09T07:18:10.542Z,21.67
2017-04-09T07:19:20.789Z,21.64
2017-04-09T07:20:30.759Z,21.65
2017-04-09T07:21:40.688Z,21.68
2017-04-09T07:22:50.613Z,21.58
2017-04-09T07:24:00.860Z,21.69
2017-04-09T07:25:11.110Z,21.62
2017-04-09T07:26:21.056Z,21.62
2017-04-09T07:27:30.985Z,21.62
2017-04-09T07:28:41.237Z,21.65
2017-04-09T07:29:51.492Z,21.67
2017-04-09T07:31:01.730Z,21.68
2017-04-09T07:32:11.966Z,21.69
2017-04-09T07:33:22.202Z,21.83
2017-04-09T07:34:32.442Z,21.84
2017-04-09T07:35:42.719Z,21.86
2017-04-09T07:36:52.735Z,21.8
2017-04-09T07:38:03.046Z,21.75
2017-04-09T07:39:13.035Z,21.74
2017-04-09T07:40:23.009Z,21.79
2017-04-09T07:41:33.333Z,21.74
2017-04-09T07:42:43.328Z,21.69
2017-04-09T07:43:53.651Z,21.67
2017-04-09T07:45:03.645Z,21.69
2017-04-09T07:46:13.963Z,21.67
2017-04-09T07:47:23.892Z,21.69
2017-04-09T07:48:34.136Z,21.72
2017-04-09T07:49:44.065Z,21.69
2017-04-09T07:50:54.308Z,21.69
2017-04-09T07:52:04.544Z,21.68
2017-04-09T07:53:14.474Z,21.69
2017-04-09T07:54:24.728Z,21.74
2017-04-09T07:55:34.998Z,21.74
2017-04-09T07:56:44.925Z,21.71
2017-04-09T07:57:54.853Z,21.79
2017-04-09T07:59:04.471Z,21.74
2017-04-09T08:00:14.090Z,21.84
2017-04-09T08:01:24.021Z,21.86
2017-04-09T08:02:33.955Z,21.84
2017-04-09T08:03:43.576Z,21.79
2017-04-09T08:04:53.818Z,21.77
2017-04-09T08:06:03.752Z,21.62
2017-04-09T08:07:13.680Z,21.49
2017-04-09T08:08:23.923Z,21.46
2017-04-09T08:09:34.176Z,21.29
2017-04-09T08:10:44.431Z,21.25
2017-04-09T08:11:54.357Z,21.28
2017-04-09T08:13:04.284Z,21.24
2017-04-09T08:14:14.528Z,21.28
2017-04-09T08:15:24.457Z,21.32
2017-04-09T08:16:34.405Z,21.27
2017-04-09T08:17:44.327Z,21.19
2017-04-09T08:18:54.250Z,21.27
2017-04-09T08:20:04.492Z,21.27
2017-04-09T08:21:14.740Z,21.32
2017-04-09T08:22:24.664Z,21.25
2017-04-09T08:23:34.287Z,21.21
2017-04-09T08:24:44.540Z,21.24
2017-04-09T08:25:54.468Z,21.27
2017-04-09T08:27:04.735Z,21.42
2017-04-09T08:28:14.576Z,21.22
2017-04-09T08:29:24.512Z,21.22
2017-04-09T08:30:34.442Z,21.28
2017-04-09T08:31:44.688Z,21.03
2017-04-09T08:32:54.922Z,20.77
2017-04-09T08:34:05.167Z,20.61
2017-04-09T08:35:15.099Z,20.5
2017-04-09T08:36:25.334Z,20.72
2017-04-09T08:37:35.579Z,20.8
2017-04-09T08:38:45.503Z,20.94
2017-04-09T08:39:55.431Z,21.06
2017-04-09T08:41:05.670Z,21.1
2017-04-09T08:42:15.604Z,21.24
2017-04-09T08:43:25.841Z,21.25
2017-04-09T08:44:35.764Z,21.31
2017-04-09T08:45:46.007Z,21.32
2017-04-09T08:46:56.252Z,21.28
2017-04-09T08:48:06.199Z,21.37
2017-04-09T08:49:15.811Z,21.37
2017-04-09T08:50:26.056Z,21.34
2017-04-09T08:51:36.293Z,21.44
2017-04-09T08:52:46.226Z,21.56
2017-04-09T08:53:56.481Z,21.43
2017-04-09T08:55:06.410Z,21.5
2017-04-09T08:56:16.347Z,21.5
2017-04-09T08:57:26.276Z,21.52
2017-04-09T08:58:35.888Z,21.5
2017-04-09T08:59:46.132Z,21.52
2017-04-09T09:00:56.372Z,21.5
2017-04-09T09:02:06.303Z,21.56
2017-04-09T09:03:16.227Z,21.49
2017-04-09T09:04:26.462Z,21.61
2017-04-09T09:05:36.400Z,21.56
2017-04-09T09:06:46.378Z,21.53
2017-04-09T09:07:56.361Z,21.53
2017-04-09T09:09:06.316Z,21.53
2017-04-09T09:10:16.588Z,21.52
2017-04-09T09:11:26.875Z,21.53
2017-04-09T09:12:36.866Z,21.59
2017-04-09T09:13:47.134Z,21.59
2017-04-09T09:14:57.412Z,21.52
2017-04-09T09:16:07.370Z,21.59
2017-04-09T09:17:16.689Z,21.72
2017-04-09T09:18:26.949Z,21.67
2017-04-09T09:19:36.918Z,21.69
2017-04-09T09:20:47.154Z,21.83
2017-04-09T09:21:57.093Z,21.74
2017-04-09T09:23:07.032Z,21.69
2017-04-09T09:24:17.281Z,21.58
2017-04-09T09:25:27.251Z,21.32
2017-04-09T09:26:37.184Z,21.22
2017-04-09T09:27:47.429Z,21.22
2017-04-09T09:28:57.672Z,21.25
2017-04-09T09:30:07.917Z,21.46
2017-04-09T09:31:18.164Z,21.56
2017-04-09T09:32:28.095Z,21.54
2017-04-09T09:33:38.039Z,21.54
2017-04-09T09:34:48.297Z,21.54
2017-04-09T09:35:58.245Z,21.54
2017-04-09T09:37:07.869Z,21.59
2017-04-09T09:38:18.134Z,21.56
2017-04-09T09:39:28.380Z,21.56
2017-04-09T09:40:38.622Z,21.61
2017-04-09T09:41:48.869Z,21.64
2017-04-09T09:42:58.793Z,21.65
2017-04-09T09:44:09.041Z,21.68
2017-04-09T09:45:19.288Z,21.59
2017-04-09T09:46:29.530Z,21.64
2017-04-09T09:47:39.764Z,21.67
2017-04-09T09:48:49.692Z,21.61
2017-04-09T09:49:59.659Z,21.62
2017-04-09T09:51:09.272Z,21.67
2017-04-09T09:52:18.911Z,21.67
2017-04-09T09:53:29.149Z,21.75
2017-04-09T09:54:38.796Z,21.68
2017-04-09T09:55:49.050Z,21.77
2017-04-09T09:56:58.979Z,21.67
2017-04-09T09:58:09.245Z,21.74
2017-04-09T09:59:19.487Z,21.72
2017-04-09T10:00:29.108Z,21.71
2017-04-09T10:01:39.341Z,21.75
2017-04-09T10:02:49.269Z,21.79
2017-04-09T10:03:59.199Z,21.59
2017-04-09T10:05:08.809Z,21.71
2017-04-09T10:06:18.741Z,21.77
2017-04-09T10:07:28.983Z,21.82
2017-04-09T10:08:39.226Z,21.71
2017-04-09T10:09:49.149Z,21.77
2017-04-09T10:10:59.403Z,21.83
2017-04-09T10:12:09.021Z,21.79
2017-04-09T10:13:19.320Z,21.82
2017-04-09T10:14:29.258Z,21.8
2017-04-09T10:15:39.515Z,21.82
2017-04-09T10:16:49.441Z,21.79
2017-04-09T10:17:59.690Z,21.79
2017-04-09T10:19:09.936Z,21.8
2017-04-09T10:20:19.861Z,21.82
2017-04-09T10:21:29.792Z,21.84
2017-04-09T10:22:40.027Z,21.88
2017-04-09T10:23:50.262Z,21.9
2017-04-09T10:25:00.190Z,21.96
2017-04-09T10:26:10.435Z,22.02
2017-04-09T10:27:20.678Z,21.9
2017-04-09T10:28:30.925Z,21.92
2017-04-09T10:29:40.547Z,21.94
2017-04-09T10:30:50.785Z,21.91
2017-04-09T10:32:01.031Z,22.02
2017-04-09T10:33:10.951Z,22.03
2017-04-09T10:34:20.876Z,21.99
2017-04-09T10:35:30.818Z,22.06
2017-04-09T10:36:40.811Z,22.02
2017-04-09T10:37:50.148Z,22.02
2017-04-09T10:39:00.410Z,22
2017-04-09T10:40:10.650Z,22.02
2017-04-09T10:41:20.579Z,22.03
2017-04-09T10:42:30.822Z,22.06
2017-04-09T10:43:41.059Z,21.9
2017-04-09T10:44:50.988Z,21.92
2017-04-09T10:46:01.229Z,21.9
2017-04-09T10:47:11.470Z,22.03
2017-04-09T10:48:20.774Z,22.02
2017-04-09T10:49:30.702Z,22.03
2017-04-09T10:50:40.318Z,22.07
2017-04-09T10:51:50.249Z,21.94
2017-04-09T10:52:59.870Z,21.94
2017-04-09T10:54:10.119Z,22.06
2017-04-09T10:55:20.054Z,22.09
2017-04-09T10:56:30.304Z,22.1
2017-04-09T10:57:40.564Z,22.02
2017-04-09T10:58:50.495Z,21.94
2017-04-09T11:00:00.748Z,21.96
2017-04-09T11:01:10.389Z,21.9
2017-04-09T11:02:20.642Z,21.96
2017-04-09T11:03:30.882Z,21.92
2017-04-09T11:04:40.189Z,21.88
2017-04-09T11:05:49.796Z,21.94
2017-04-09T11:07:00.031Z,21.94
2017-04-09T11:08:10.278Z,21.88
2017-04-09T11:09:20.531Z,22.05
2017-04-09T11:10:30.777Z,22.06
2017-04-09T11:11:40.395Z,22.07
2017-04-09T11:12:50.632Z,22.06
2017-04-09T11:14:00.558Z,21.98
2017-04-09T11:15:10.519Z,22.06
2017-04-09T11:16:20.473Z,22.02
2017-04-09T11:17:30.710Z,22.07
2017-04-09T11:18:40.633Z,22.02
2017-04-09T11:19:50.254Z,22.05
2017-04-09T11:20:59.878Z,21.98
2017-04-09T11:22:10.123Z,22.06
2017-04-09T11:23:20.367Z,22.06
2017-04-09T11:24:30.617Z,22.06
2017-04-09T11:25:40.233Z,22.07
2017-04-09T11:26:50.482Z,22.06
2017-04-09T11:28:00.741Z,21.91
2017-04-09T11:29:10.356Z,21.99
2017-04-09T11:30:20.608Z,22.06
2017-04-09T11:31:30.847Z,22.07
2017-04-09T11:32:40.778Z,22.02
2017-04-09T11:33:51.025Z,22
2017-04-09T11:35:00.960Z,22.03
2017-04-09T11:36:10.895Z,22.06
2017-04-09T11:37:20.509Z,22.05
2017-04-09T11:38:30.762Z,22.03
2017-04-09T11:39:40.384Z,22.02
2017-04-09T11:40:50.630Z,22.07
2017-04-09T11:42:00.872Z,22.03
2017-04-09T11:43:10.485Z,22.03
2017-04-09T11:44:20.414Z,22.07
2017-04-09T11:45:29.722Z,22.02
2017-04-09T11:46:39.650Z,22.07
2017-04-09T11:47:49.264Z,22.07
2017-04-09T11:48:59.503Z,21.99
2017-04-09T11:50:09.425Z,21.98
2017-04-09T11:51:19.353Z,22.02
2017-04-09T11:52:29.288Z,21.9
2017-04-09T11:53:39.229Z,22.05
2017-04-09T11:54:49.474Z,22.03
2017-04-09T11:55:59.720Z,22.07
2017-04-09T11:57:09.969Z,22.06
2017-04-09T11:58:19.895Z,22.1
2017-04-09T11:59:30.174Z,22.07
2017-04-09T12:00:40.419Z,22.02
2017-04-09T12:01:50.344Z,22.07
2017-04-09T12:03:00.597Z,22.07
2017-04-09T12:04:10.843Z,21.96
2017-04-09T12:05:21.087Z,22.06
2017-04-09T12:06:31.009Z,22.02
2017-04-09T12:07:40.938Z,22.03
2017-04-09T12:08:51.180Z,22.09
2017-04-09T12:10:01.423Z,22.03
2017-04-09T12:11:11.870Z,22.03
2017-04-09T12:12:21.847Z,22.03
2017-04-09T12:13:31.463Z,22.03
2017-04-09T12:14:41.081Z,22.02
2017-04-09T12:15:51.012Z,22.03
2017-04-09T12:17:01.262Z,22.09
2017-04-09T12:18:11.193Z,22.06
2017-04-09T12:19:21.131Z,22.1
2017-04-09T12:20:31.379Z,22.1
2017-04-09T12:21:41.623Z,22.1
2017-04-09T12:22:51.549Z,22.15
2017-04-09T12:24:01.783Z,22.17
2017-04-09T12:25:12.026Z,22.14
2017-04-09T12:26:22.266Z,22.14
2017-04-09T12:27:31.571Z,22.12
2017-04-09T12:28:41.825Z,22.14
2017-04-09T12:29:51.760Z,22.17
2017-04-09T12:31:01.685Z,22.18
2017-04-09T12:32:11.931Z,22.15
2017-04-09T12:33:21.857Z,22.14
2017-04-09T12:34:31.786Z,22.15
2017-04-09T12:35:41.398Z,22.07
2017-04-09T12:36:51.639Z,22.05
2017-04-09T12:38:00.945Z,22.09
2017-04-09T12:39:10.874Z,22.06
2017-04-09T12:40:20.482Z,22.14
2017-04-09T12:41:30.411Z,22.17
2017-04-09T12:42:40.338Z,22.12
2017-04-09T12:43:50.578Z,22.14
2017-04-09T12:45:00.525Z,22.15
2017-04-09T12:46:10.450Z,22.14
2017-04-09T12:47:20.377Z,22.12
2017-04-09T12:48:30.312Z,22.14
2017-04-09T12:49:40.277Z,22.18
2017-04-09T12:50:50.209Z,22.22
2017-04-09T12:52:00.458Z,22.14
2017-04-09T12:53:10.703Z,22.15
2017-04-09T12:54:20.630Z,22.17
2017-04-09T12:55:30.870Z,22.2
2017-04-09T12:56:40.486Z,22.2
2017-04-09T12:57:50.101Z,22.14
2017-04-09T12:59:00.343Z,22.17
2017-04-09T13:00:11.473Z,22.14
2017-04-09T13:01:21.410Z,22.09
2017-04-09T13:02:31.340Z,22.14
2017-04-09T13:03:41.275Z,22.17
2017-04-09T13:04:50.887Z,22.15
2017-04-09T13:06:00.816Z,22.14
2017-04-09T13:07:11.058Z,22.12
2017-04-09T13:08:20.993Z,22.14
2017-04-09T13:09:31.237Z,22.22
2017-04-09T13:10:41.477Z,22.14
2017-04-09T13:11:51.404Z,22.2
2017-04-09T13:13:01.330Z,22.22
2017-04-09T13:14:11.258Z,22.2
2017-04-09T13:15:20.870Z,22.22
2017-04-09T13:16:30.484Z,22.21
2017-04-09T13:17:40.469Z,22.17
2017-04-09T13:18:50.720Z,22.25
2017-04-09T13:20:00.765Z,22.25
2017-04-09T13:21:11.669Z,22.21
2017-04-09T13:22:22.825Z,22.21
2017-04-09T13:23:33.679Z,22.24
2017-04-09T13:24:44.080Z,22.22
2017-04-09T13:25:54.505Z,22.25
2017-04-09T13:27:05.625Z,22.2
2017-04-09T13:28:16.694Z,22.21
2017-04-09T13:29:27.465Z,22.25
2017-04-09T13:30:38.195Z,22.21
2017-04-09T13:31:48.170Z,22.18
2017-04-09T13:32:58.916Z,22.22
2017-04-09T13:34:09.638Z,22.18
2017-04-09T13:35:20.767Z,22.17
2017-04-09T13:36:31.345Z,22.17
2017-04-09T13:37:41.838Z,22.21
2017-04-09T13:38:51.876Z,22.25
2017-04-09T13:40:02.196Z,22.21
2017-04-09T13:41:12.615Z,22.22
2017-04-09T13:42:23.307Z,22.18
2017-04-09T13:43:33.948Z,22.05
2017-04-09T13:44:44.420Z,21.74
2017-04-09T13:45:54.755Z,21.67
2017-04-09T13:47:05.030Z,21.68
2017-04-09T13:48:15.625Z,21.71
2017-04-09T13:49:26.201Z,21.83
2017-04-09T13:50:36.191Z,21.82
2017-04-09T13:51:45.889Z,22.03
2017-04-09T13:52:56.012Z,22.12
2017-04-09T13:54:06.716Z,22.14
2017-04-09T13:55:17.270Z,22.14
2017-04-09T13:56:27.666Z,22.2
2017-04-09T13:57:37.718Z,22.2
2017-04-09T13:58:48.849Z,22.21
2017-04-09T13:59:59.610Z,22.22
2017-04-09T14:01:10.738Z,22.22
2017-04-09T14:02:21.804Z,22.2
2017-04-09T14:03:32.936Z,22.2
2017-04-09T14:04:42.976Z,22.2
2017-04-09T14:05:53.692Z,22.22
2017-04-09T14:07:04.135Z,22.21
2017-04-09T14:08:14.840Z,22.17
2017-04-09T14:09:25.762Z,22.24
2017-04-09T14:10:36.883Z,22.28
2017-04-09T14:11:47.687Z,22.35
2017-04-09T14:12:58.314Z,22.39
2017-04-09T14:14:08.522Z,22.37
2017-04-09T14:15:19.051Z,22.31
2017-04-09T14:16:29.795Z,22.3
2017-04-09T14:17:40.475Z,22.37
2017-04-09T14:18:50.433Z,22.36
2017-04-09T14:20:00.967Z,22.36
2017-04-09T14:21:11.174Z,22.4
2017-04-09T14:22:21.754Z,22.33
2017-04-09T14:23:32.413Z,22.25
2017-04-09T14:24:43.106Z,22.31
2017-04-09T14:25:53.541Z,22.3
2017-04-09T14:27:03.651Z,22.3
2017-04-09T14:28:13.880Z,22.3
2017-04-09T14:29:24.313Z,22.35
2017-04-09T14:30:34.873Z,22.3
2017-04-09T14:31:45.543Z,22.31
2017-04-09T14:32:56.263Z,22.3
2017-04-09T14:34:06.641Z,22.3
2017-04-09T14:35:17.544Z,22.28
2017-04-09T14:36:28.604Z,22.33
2017-04-09T14:37:39.544Z,22.27
2017-04-09T14:38:50.289Z,22.3
2017-04-09T14:40:00.733Z,22.33
2017-04-09T14:41:10.539Z,22.3
2017-04-09T14:42:20.458Z,22.35
2017-04-09T14:43:30.622Z,22.37
2017-04-09T14:44:40.867Z,22.36
2017-04-09T14:45:50.760Z,22.39
2017-04-09T14:47:01.121Z,22.35
2017-04-09T14:48:11.809Z,22.35
2017-04-09T14:49:22.348Z,22.36
2017-04-09T14:50:32.589Z,22.35
2017-04-09T14:51:43.118Z,22.3
2017-04-09T14:52:53.322Z,22.3
2017-04-09T14:54:03.660Z,22.42
2017-04-09T14:55:13.775Z,22.3
2017-04-09T14:56:24.023Z,22.39
2017-04-09T14:57:33.976Z,22.36
2017-04-09T14:58:43.742Z,22.39
2017-04-09T14:59:54.390Z,22.37
2017-04-09T15:01:04.895Z,22.4
2017-04-09T15:02:15.036Z,22.31
2017-04-09T15:03:25.192Z,22.35
2017-04-09T15:04:35.599Z,22.42